Terminal Aerodrome Forecast
Issued by NWS Sterling, VA

Current Version | Previous Version | Graphics & Text | Print | Product List | Glossary On
Versions: 1 2 3 4 5 6 7 8 9 10 11 12 13 14 15 16 17 18 19 20 21 22
000
FTUS41 KLWX 232328
TAFDCA
TAF
KDCA 232328Z 2400/2424 19007KT P6SM SCT090
     FM240900 18005KT 3SM BR SCT130
     FM241200 18006KT P6SM BKN150
     FM241800 18010KT P6SM SCT150=

USA.gov is the U.S. government's official web portal to all federal, state and local government web resources and services.